Hinckley, United Kingdom
Current Conditions -  °F | °C
As of 12:20 AM on Saturday 29 Nov 2014 (Local Time) from EGBE Reporting Station
Drizzle Drizzle  
Wind Chill: 50°   Ceiling: Unl
Heat Index: 50°   Visibility: 2.5mi
Dew Point: 50°   Wind: 10mph
Humidity: 100%   Direction: 30°NNE
Pressure: 29.74"   Gusts: NA
Location:  52.54°N, 1.37°W
Report Text: EGBE 290020Z 03009KT 4000 -DZ BR SCT008 10/10 Q1007
Loading
Personal Weather Stations






























Interactive Weather Map New forecast layout! Learn more

10-Day Weather Forecast

Advertisements
Track Severe Weather on mobile